Time;durP1;ratioP1;P1;durP2;ratioP2;P2;SDS_P1;SDS_P2;PMS_P1;PMS_P2;Temp;Humidity;BMP_temperature;BMP_pressure;BME280_temperature;BME280_humidity;BME280_pressure;Samples;Min_cycle;Max_cycle;Signal;HPM_P1;HPM_P2
2024/01/17 00:00:08;;;;;;;34.17;19.67;;;-0.90;99.90;;;;;;10074590;29;20237;-82
2024/01/17 00:05:14;;;;;;;34.67;19.37;;;-1.00;99.90;;;;;;10070216;29;20750;-83
2024/01/17 00:10:18;;;;;;;33.00;18.23;;;-1.00;99.90;;;;;;10075236;29;20730;-82
2024/01/17 00:15:22;;;;;;;26.77;16.43;;;-1.00;99.90;;;;;;10053660;29;20786;-83
2024/01/17 00:20:24;;;;;;;39.03;18.90;;;-0.90;99.90;;;;;;10070945;29;20232;-82
2024/01/17 00:25:27;;;;;;;44.20;20.57;;;-1.00;99.90;;;;;;10085678;29;20736;-82
2024/01/17 00:30:30;;;;;;;30.70;16.07;;;-1.10;99.90;;;;;;10072602;29;20674;-81
2024/01/17 00:35:32;;;;;;;30.93;16.67;;;-1.10;99.90;;;;;;10079895;29;20252;-82
2024/01/17 00:40:35;;;;;;;25.27;14.37;;;-1.10;99.90;;;;;;10092119;29;20268;-82
2024/01/17 00:45:37;;;;;;;23.90;14.43;;;-1.20;99.90;;;;;;10056931;29;20264;-82
2024/01/17 00:50:40;;;;;;;28.03;13.67;;;-1.30;99.90;;;;;;10054068;29;20758;-82
2024/01/17 00:55:43;;;;;;;26.53;14.83;;;-1.50;99.90;;;;;;10054171;29;20309;-81
2024/01/17 01:00:46;;;;;;;32.57;15.60;;;-1.60;99.90;;;;;;10056338;29;20229;-82
2024/01/17 01:05:49;;;;;;;29.97;15.73;;;-1.60;99.90;;;;;;10093064;29;20366;-81
2024/01/17 01:10:52;;;;;;;29.80;15.37;;;-1.70;99.90;;;;;;10078609;29;20262;-82
2024/01/17 01:15:54;;;;;;;30.47;16.63;;;-1.80;99.90;;;;;;10055191;29;20249;-81
2024/01/17 01:20:57;;;;;;;27.40;14.80;;;-2.00;99.90;;;;;;10124461;29;20287;-82
2024/01/17 01:26:00;;;;;;;24.67;14.23;;;-2.30;99.90;;;;;;10131292;29;20271;-82
2024/01/17 01:31:02;;;;;;;26.63;14.43;;;-2.40;99.90;;;;;;10111226;29;20280;-82
2024/01/17 01:36:05;;;;;;;35.70;18.33;;;-2.60;99.90;;;;;;10092511;29;20255;-82
2024/01/17 01:41:08;;;;;;;31.63;16.73;;;-2.70;99.90;;;;;;10091311;29;20276;-82
2024/01/17 01:46:14;;;;;;;27.73;16.13;;;-3.00;99.90;;;;;;10091125;29;20263;-82
2024/01/17 01:51:19;;;;;;;35.63;17.00;;;-3.20;99.90;;;;;;10089760;29;20239;-82
2024/01/17 01:56:26;;;;;;;30.57;16.30;;;-3.50;99.90;;;;;;10091647;29;20252;-82
2024/01/17 02:01:29;;;;;;;28.63;15.40;;;-3.70;99.90;;;;;;10090765;29;20444;-82
2024/01/17 02:06:34;;;;;;;27.70;16.20;;;-3.70;99.90;;;;;;10090073;29;20296;-82
2024/01/17 02:11:37;;;;;;;27.33;15.83;;;-3.90;99.90;;;;;;10090772;29;20278;-82
2024/01/17 02:16:42;;;;;;;26.70;15.33;;;-4.10;99.90;;;;;;10092008;29;20242;-81
2024/01/17 02:21:44;;;;;;;26.57;16.20;;;-4.30;99.90;;;;;;10128206;29;20253;-82
2024/01/17 02:26:47;;;;;;;27.40;15.70;;;-4.30;99.90;;;;;;10128542;29;20267;-82
2024/01/17 02:31:51;;;;;;;30.50;15.77;;;-4.50;99.90;;;;;;10127026;29;20238;-82
2024/01/17 02:36:53;;;;;;;31.20;15.23;;;-4.60;99.90;;;;;;10091483;29;20241;-82
2024/01/17 02:41:56;;;;;;;26.83;16.23;;;-4.80;99.90;;;;;;10089228;29;20283;-82
2024/01/17 02:46:58;;;;;;;27.23;15.50;;;-4.90;99.90;;;;;;10089466;29;21026;-82
2024/01/17 02:52:01;;;;;;;27.87;15.70;;;-4.90;99.90;;;;;;10086698;29;20298;-82
2024/01/17 02:57:04;;;;;;;29.30;15.30;;;-5.10;99.90;;;;;;10117487;29;20238;-82
2024/01/17 03:02:06;;;;;;;27.27;16.07;;;-5.20;99.90;;;;;;10072208;29;20246;-82
2024/01/17 03:07:09;;;;;;;30.43;15.33;;;-5.30;99.90;;;;;;10052980;29;20655;-82
2024/01/17 03:12:11;;;;;;;30.50;15.27;;;-5.40;99.90;;;;;;10085195;29;20747;-82
2024/01/17 03:17:15;;;;;;;28.47;16.20;;;-5.60;99.90;;;;;;10093819;29;20286;-82
2024/01/17 03:22:17;;;;;;;26.67;15.17;;;-5.60;99.90;;;;;;10127949;29;20790;-82
2024/01/17 03:27:20;;;;;;;24.73;15.00;;;-5.90;99.90;;;;;;10071249;29;20392;-82
2024/01/17 03:32:22;;;;;;;27.30;16.53;;;-6.00;99.90;;;;;;10061378;29;20311;-82
2024/01/17 03:37:25;;;;;;;29.17;16.87;;;-6.20;99.90;;;;;;10062613;29;20375;-82
2024/01/17 03:42:28;;;;;;;27.00;16.03;;;-6.30;99.90;;;;;;10061521;29;20932;-82
2024/01/17 03:47:30;;;;;;;29.17;16.30;;;-6.40;99.90;;;;;;10063048;29;20718;-82
2024/01/17 03:52:33;;;;;;;25.80;15.80;;;-6.50;99.90;;;;;;10069544;29;20305;-81
2024/01/17 03:57:35;;;;;;;30.63;16.87;;;-6.60;99.90;;;;;;10076007;29;20751;-81
2024/01/17 04:02:38;;;;;;;29.70;17.27;;;-6.80;99.90;;;;;;10068026;29;20230;-82
2024/01/17 04:07:40;;;;;;;29.07;16.50;;;-7.00;99.90;;;;;;10069280;29;20676;-82
2024/01/17 04:12:43;;;;;;;30.63;16.50;;;-7.10;99.90;;;;;;10074951;29;20613;-81
2024/01/17 04:17:45;;;;;;;28.90;17.37;;;-7.20;99.90;;;;;;10066747;29;20307;-82
2024/01/17 04:22:48;;;;;;;33.00;17.87;;;-7.20;99.90;;;;;;10066325;29;20237;-82
2024/01/17 04:27:50;;;;;;;45.97;19.17;;;-7.30;99.90;;;;;;10066229;29;20328;-82
2024/01/17 04:32:53;;;;;;;37.00;20.47;;;-7.40;99.90;;;;;;10068820;29;20233;-82
2024/01/17 04:37:55;;;;;;;37.63;18.93;;;-7.20;99.90;;;;;;10066337;29;20963;-82
2024/01/17 04:42:58;;;;;;;36.07;19.47;;;-7.00;99.90;;;;;;10067500;29;20641;-82
2024/01/17 04:48:01;;;;;;;37.47;19.53;;;-6.80;99.90;;;;;;10067623;29;20340;-82
2024/01/17 04:53:04;;;;;;;39.80;20.10;;;-6.70;99.90;;;;;;10066050;29;20637;-82
2024/01/17 04:58:07;;;;;;;36.73;21.33;;;-6.80;99.90;;;;;;10088631;29;20309;-82
2024/01/17 05:03:09;;;;;;;37.47;21.37;;;-6.90;99.90;;;;;;10068308;29;20322;-82
2024/01/17 05:08:12;;;;;;;39.03;21.03;;;-7.00;99.90;;;;;;10062227;29;20324;-82
2024/01/17 05:13:15;;;;;;;44.63;21.43;;;-6.90;99.90;;;;;;10063230;29;20289;-82
2024/01/17 05:18:17;;;;;;;39.43;22.10;;;-7.00;99.90;;;;;;10060904;29;20344;-82
2024/01/17 05:23:20;;;;;;;36.03;22.23;;;-7.10;99.90;;;;;;10090381;29;20359;-82
2024/01/17 05:28:23;;;;;;;56.57;31.57;;;-7.10;99.90;;;;;;10066154;29;20315;-82
2024/01/17 05:33:25;;;;;;;68.40;36.77;;;-7.00;99.90;;;;;;10065377;29;20229;-82
2024/01/17 05:38:28;;;;;;;50.73;28.67;;;-6.80;99.90;;;;;;10065214;29;20328;-82
2024/01/17 05:43:31;;;;;;;40.93;23.03;;;-6.90;99.90;;;;;;10093496;29;20727;-82
2024/01/17 05:48:33;;;;;;;37.73;23.97;;;-6.90;99.90;;;;;;10062443;29;20253;-83
2024/01/17 05:53:36;;;;;;;35.50;21.80;;;-7.00;99.90;;;;;;10064204;29;20342;-82
2024/01/17 05:58:39;;;;;;;35.47;20.67;;;-6.90;99.90;;;;;;10093323;29;20691;-83
2024/01/17 06:03:41;;;;;;;28.17;18.37;;;-7.00;99.90;;;;;;10068580;29;20706;-82
2024/01/17 06:08:44;;;;;;;34.17;19.90;;;-6.90;99.90;;;;;;10063664;29;20397;-82
2024/01/17 06:13:47;;;;;;;36.43;20.03;;;-7.00;99.90;;;;;;10059988;29;20275;-82
2024/01/17 06:18:49;;;;;;;39.73;23.00;;;-7.20;99.90;;;;;;10061553;29;20341;-81
2024/01/17 06:23:53;;;;;;;43.40;22.70;;;-7.30;99.90;;;;;;10061792;29;20710;-83
2024/01/17 06:28:55;;;;;;;35.23;20.43;;;-7.30;99.90;;;;;;10062148;29;20320;-81
2024/01/17 06:33:58;;;;;;;38.50;22.70;;;-7.30;99.90;;;;;;10064009;29;20758;-82
2024/01/17 06:39:01;;;;;;;38.27;22.50;;;-7.30;99.90;;;;;;10064376;29;20288;-81
2024/01/17 06:44:03;;;;;;;41.57;21.83;;;-7.30;99.90;;;;;;10063670;29;20229;-81
2024/01/17 06:49:06;;;;;;;38.73;22.63;;;-7.10;99.90;;;;;;10061667;29;20337;-82
2024/01/17 06:54:09;;;;;;;40.80;22.00;;;-7.20;99.90;;;;;;10062106;29;20261;-82
2024/01/17 06:59:12;;;;;;;42.93;23.30;;;-7.10;99.90;;;;;;10061954;29;20338;-82
2024/01/17 07:04:14;;;;;;;38.73;23.10;;;-7.10;99.90;;;;;;10067629;29;20616;-81
2024/01/17 07:09:17;;;;;;;36.33;21.67;;;-7.00;99.90;;;;;;10061978;29;20280;-82
2024/01/17 07:14:20;;;;;;;44.03;24.03;;;-6.90;99.90;;;;;;10061784;29;20237;-81
2024/01/17 07:19:22;;;;;;;39.13;23.07;;;-6.90;99.90;;;;;;10063838;29;20288;-82
2024/01/17 07:24:25;;;;;;;42.83;22.83;;;-6.90;99.90;;;;;;10066793;29;20688;-81
2024/01/17 07:29:27;;;;;;;42.37;24.67;;;-7.00;99.90;;;;;;10060042;29;20315;-82
2024/01/17 07:34:30;;;;;;;40.03;23.67;;;-6.80;99.90;;;;;;10068477;29;20269;-82
2024/01/17 07:39:33;;;;;;;41.70;25.13;;;-6.70;99.90;;;;;;10076085;29;20277;-81
2024/01/17 07:44:35;;;;;;;32.87;16.97;;;-6.80;99.90;;;;;;10086797;29;20237;-80
2024/01/17 07:49:38;;;;;;;51.60;27.67;;;-6.40;99.90;;;;;;10094422;29;20215;-80
2024/01/17 07:54:41;;;;;;;44.30;27.80;;;-6.10;99.90;;;;;;10085593;29;20662;-81
2024/01/17 07:59:43;;;;;;;50.13;27.83;;;-6.10;99.90;;;;;;10057937;29;20245;-80
2024/01/17 08:04:48;;;;;;;49.70;28.10;;;-6.20;99.90;;;;;;10072421;29;20312;-80
2024/01/17 08:09:54;;;;;;;49.17;28.03;;;-6.20;99.90;;;;;;10090232;29;20684;-80
2024/01/17 08:15:00;;;;;;;53.40;30.83;;;-6.00;99.90;;;;;;10056717;29;20695;-80
2024/01/17 08:20:06;;;;;;;59.27;34.50;;;-5.90;99.90;;;;;;10056633;29;20295;-81
2024/01/17 08:25:09;;;;;;;49.13;31.03;;;-6.00;99.90;;;;;;10055066;29;20804;-80
2024/01/17 08:30:12;;;;;;;51.00;29.53;;;-6.10;99.90;;;;;;10055624;29;20232;-79
2024/01/17 08:35:15;;;;;;;54.83;30.57;;;-5.70;99.90;;;;;;10054410;29;20246;-79
2024/01/17 08:40:18;;;;;;;55.40;32.97;;;-5.70;99.90;;;;;;10055158;29;20266;-79
2024/01/17 08:45:20;;;;;;;53.80;31.80;;;-5.70;99.90;;;;;;10053977;29;20270;-79
2024/01/17 08:50:23;;;;;;;59.20;33.10;;;-5.50;99.90;;;;;;10055590;29;20305;-79
2024/01/17 08:55:26;;;;;;;58.77;33.57;;;-5.40;99.90;;;;;;10054246;29;20251;-79
2024/01/17 09:00:28;;;;;;;61.77;37.93;;;-5.10;99.90;;;;;;10054189;29;20238;-79
2024/01/17 09:05:32;;;;;;;67.90;38.80;;;-5.00;99.90;;;;;;10051988;29;20263;-79
2024/01/17 09:10:35;;;;;;;60.03;34.27;;;-5.00;99.90;;;;;;10053022;29;20302;-79
2024/01/17 09:15:37;;;;;;;54.17;33.00;;;-4.80;99.90;;;;;;10052452;29;20245;-79
2024/01/17 09:20:40;;;;;;;61.63;33.57;;;-4.70;99.90;;;;;;10053609;29;20245;-80
2024/01/17 09:25:42;;;;;;;63.90;37.50;;;-4.50;99.90;;;;;;10051533;29;20303;-79
2024/01/17 09:30:45;;;;;;;75.50;38.37;;;-4.40;99.90;;;;;;10052677;29;20244;-80
2024/01/17 09:35:48;;;;;;;51.77;29.37;;;-4.20;99.90;;;;;;10051898;29;20279;-79
2024/01/17 09:41:04;;;;;;;51.33;28.37;;;-4.10;99.90;;;;;;10052051;29;20333;-79
2024/01/17 09:46:12;;;;;;;47.43;26.80;;;-3.80;99.90;;;;;;10051419;29;20260;-79
2024/01/17 09:51:18;;;;;;;51.97;28.87;;;-3.60;99.90;;;;;;10051990;29;20239;-79
2024/01/17 09:56:24;;;;;;;50.63;28.40;;;-3.30;99.90;;;;;;10052176;29;20301;-79
2024/01/17 10:01:27;;;;;;;51.20;28.87;;;-3.10;99.90;;;;;;10052797;29;20239;-79
2024/01/17 10:06:31;;;;;;;56.97;30.37;;;-3.00;99.90;;;;;;10051978;29;20267;-79
2024/01/17 10:11:34;;;;;;;52.60;32.47;;;-3.00;99.90;;;;;;10051762;29;20245;-80
2024/01/17 10:16:37;;;;;;;51.33;31.10;;;-2.90;99.90;;;;;;10051727;29;20690;-79
2024/01/17 10:21:40;;;;;;;54.23;31.40;;;-2.70;99.90;;;;;;10051060;29;20651;-79
2024/01/17 10:26:44;;;;;;;57.63;31.70;;;-2.60;99.90;;;;;;10051058;29;20647;-79
2024/01/17 10:31:46;;;;;;;57.73;31.63;;;-2.50;99.90;;;;;;10035440;29;20276;-79
2024/01/17 10:36:49;;;;;;;58.80;31.70;;;-2.30;99.90;;;;;;10051100;29;20316;-79
2024/01/17 10:41:54;;;;;;;55.50;32.27;;;-2.20;99.90;;;;;;10050082;29;20639;-79
2024/01/17 10:46:57;;;;;;;53.07;31.10;;;-2.10;99.90;;;;;;10049213;29;20305;-79
2024/01/17 10:52:11;;;;;;;53.47;32.27;;;-2.00;99.90;;;;;;10050562;29;20248;-79
2024/01/17 10:57:15;;;;;;;53.47;31.47;;;-2.00;99.90;;;;;;10050071;29;20244;-79
2024/01/17 11:02:22;;;;;;;49.47;30.33;;;-2.00;99.90;;;;;;10051525;29;20249;-79
2024/01/17 11:07:25;;;;;;;56.03;33.23;;;-2.10;99.90;;;;;;10050624;29;20747;-80
2024/01/17 11:12:31;;;;;;;64.07;35.07;;;-2.00;99.90;;;;;;10049534;29;20244;-79
2024/01/17 11:17:39;;;;;;;59.77;36.97;;;-2.00;99.90;;;;;;10058291;29;20270;-80
2024/01/17 11:22:42;;;;;;;59.97;36.83;;;-1.80;99.90;;;;;;10088072;29;20303;-79
2024/01/17 11:28:19;;;;;;;65.37;37.33;;;-1.70;99.90;;;;;;10054834;29;20312;-80
2024/01/17 11:33:25;;;;;;;81.67;41.93;;;-1.40;99.90;;;;;;10050393;29;20270;-79
2024/01/17 11:38:32;;;;;;;71.03;40.47;;;-1.30;99.90;;;;;;10050211;29;20337;-79
2024/01/17 11:43:38;;;;;;;82.73;42.73;;;-1.20;99.90;;;;;;10050601;29;20276;-78
2024/01/17 11:48:40;;;;;;;68.57;38.70;;;-1.30;99.90;;;;;;10048932;29;20730;-79
2024/01/17 11:53:50;;;;;;;69.70;37.97;;;-1.20;99.90;;;;;;10049323;29;20708;-79
2024/01/17 11:58:57;;;;;;;65.83;35.37;;;-1.20;99.90;;;;;;10049761;29;20244;-79
2024/01/17 12:03:59;;;;;;;54.27;34.23;;;-1.20;99.90;;;;;;10049354;29;20233;-79
2024/01/17 12:09:04;;;;;;;62.27;32.30;;;-1.30;99.90;;;;;;10046383;29;20789;-78
2024/01/17 12:14:07;;;;;;;53.10;30.97;;;-1.30;99.90;;;;;;10055713;29;20756;-79
2024/01/17 12:19:12;;;;;;;42.43;28.03;;;-1.30;99.90;;;;;;10058476;29;20694;-78
2024/01/17 12:24:16;;;;;;;46.63;26.67;;;-1.30;99.90;;;;;;10055364;29;20265;-78
2024/01/17 12:29:20;;;;;;;35.83;23.43;;;-1.40;99.90;;;;;;10054710;29;20330;-79
2024/01/17 12:34:23;;;;;;;32.07;20.00;;;-1.40;99.90;;;;;;10055036;29;20236;-79
2024/01/17 12:39:25;;;;;;;34.40;22.23;;;-1.00;99.90;;;;;;10053940;29;20328;-79
2024/01/17 12:44:29;;;;;;;39.90;21.97;;;-1.00;99.90;;;;;;10055368;29;20249;-79
2024/01/17 12:49:32;;;;;;;30.00;16.77;;;-1.00;99.90;;;;;;10054891;29;20320;-78
2024/01/17 12:54:38;;;;;;;41.87;25.23;;;-0.90;99.90;;;;;;10054212;29;20237;-79
2024/01/17 12:59:41;;;;;;;48.60;27.77;;;-0.10;99.90;;;;;;10054266;29;20237;-78
2024/01/17 13:05:10;;;;;;;50.90;30.43;;;-0.30;99.90;;;;;;10053658;29;20241;-78
2024/01/17 13:10:17;;;;;;;56.77;36.37;;;-0.40;99.90;;;;;;10072133;29;20779;-78
2024/01/17 13:15:21;;;;;;;41.90;26.60;;;-0.60;99.90;;;;;;10053405;29;20258;-78
2024/01/17 13:20:26;;;;;;;41.07;25.37;;;-0.40;99.90;;;;;;10052303;29;20270;-78
2024/01/17 13:25:29;;;;;;;49.40;27.27;;;-0.70;99.90;;;;;;10052356;29;20285;-78
2024/01/17 13:30:34;;;;;;;51.63;29.13;;;-0.80;99.90;;;;;;10052374;29;20340;-77
2024/01/17 13:35:43;;;;;;;83.00;43.70;;;-1.00;99.90;;;;;;10052636;29;20381;-78
2024/01/17 13:40:45;;;;;;;85.53;44.00;;;-1.00;99.90;;;;;;10052077;29;20345;-78
2024/01/17 13:45:48;;;;;;;84.10;46.07;;;-1.10;99.90;;;;;;10050864;29;20255;-78
2024/01/17 13:50:51;;;;;;;64.30;34.80;;;-1.10;99.90;;;;;;10051948;29;20253;-78
2024/01/17 13:55:54;;;;;;;51.80;31.30;;;-1.20;99.90;;;;;;10052409;29;20300;-78
2024/01/17 14:00:58;;;;;;;54.20;30.63;;;-1.30;99.90;;;;;;10051616;29;20272;-78
2024/01/17 14:06:02;;;;;;;59.63;33.03;;;-1.30;99.90;;;;;;10052135;29;20244;-78
2024/01/17 14:11:04;;;;;;;54.37;31.30;;;-1.40;99.90;;;;;;10050271;29;20690;-78
2024/01/17 14:16:07;;;;;;;57.70;32.77;;;-1.60;99.90;;;;;;10051476;29;20288;-78
2024/01/17 14:21:10;;;;;;;61.20;36.63;;;-1.60;99.90;;;;;;10051494;29;20709;-78
2024/01/17 14:26:18;;;;;;;61.87;39.67;;;-1.70;99.90;;;;;;10052067;29;20268;-78
2024/01/17 14:31:20;;;;;;;57.50;35.27;;;-1.70;99.90;;;;;;10050342;29;20251;-78
2024/01/17 14:36:23;;;;;;;63.07;38.57;;;-1.80;99.90;;;;;;10039466;29;20244;-78
2024/01/17 14:41:27;;;;;;;77.13;42.87;;;-1.90;99.90;;;;;;10050382;29;20269;-78
2024/01/17 14:46:33;;;;;;;56.37;34.03;;;-2.00;99.90;;;;;;10050870;29;20252;-78
2024/01/17 14:51:37;;;;;;;62.33;31.57;;;-2.00;99.90;;;;;;10012429;29;20244;-78
2024/01/17 14:56:39;;;;;;;107.57;60.57;;;-2.10;99.90;;;;;;10025098;29;20245;-78
2024/01/17 15:01:45;;;;;;;49.77;28.20;;;-2.20;99.90;;;;;;10050834;29;20244;-78
2024/01/17 15:06:49;;;;;;;50.37;27.50;;;-2.30;99.90;;;;;;10051077;29;20324;-78
2024/01/17 15:11:52;;;;;;;52.43;28.20;;;-2.30;99.90;;;;;;10079143;29;20289;-78
2024/01/17 15:16:55;;;;;;;50.80;28.10;;;-2.40;99.90;;;;;;10050210;29;20483;-78
2024/01/17 15:21:58;;;;;;;56.80;34.57;;;-2.40;99.90;;;;;;10012384;29;20234;-78
2024/01/17 15:27:01;;;;;;;83.57;42.87;;;-2.40;99.90;;;;;;10012393;29;20318;-78
2024/01/17 15:32:03;;;;;;;81.70;43.53;;;-2.40;99.90;;;;;;10042724;29;20240;-78
2024/01/17 15:37:06;;;;;;;86.70;43.67;;;-2.50;99.90;;;;;;10048717;29;20272;-77
2024/01/17 15:42:08;;;;;;;78.73;42.90;;;-2.50;99.90;;;;;;10050381;29;20243;-78
2024/01/17 15:47:11;;;;;;;84.67;46.97;;;-2.50;99.90;;;;;;10057560;29;20260;-78
2024/01/17 15:52:14;;;;;;;97.57;56.17;;;-2.60;99.90;;;;;;10057219;29;20273;-78
2024/01/17 15:57:17;;;;;;;95.57;52.90;;;-2.60;99.90;;;;;;10057885;29;20651;-78
2024/01/17 16:02:19;;;;;;;83.83;45.57;;;-2.70;99.90;;;;;;10056817;29;20797;-78
2024/01/17 16:07:22;;;;;;;75.63;42.43;;;-2.80;99.90;;;;;;10051723;29;20347;-78
2024/01/17 16:12:25;;;;;;;76.87;42.13;;;-2.80;99.90;;;;;;10054153;29;20241;-79
2024/01/17 16:17:28;;;;;;;83.07;40.63;;;-2.80;99.90;;;;;;10060764;29;20243;-78
2024/01/17 16:22:31;;;;;;;79.33;42.30;;;-2.80;99.90;;;;;;10090496;29;20312;-77
2024/01/17 16:27:33;;;;;;;62.70;38.73;;;-2.70;99.90;;;;;;10061772;29;20936;-78
2024/01/17 16:32:37;;;;;;;76.37;43.97;;;-2.70;99.90;;;;;;10051339;29;20300;-78
2024/01/17 16:37:39;;;;;;;75.57;44.87;;;-2.70;99.90;;;;;;10052954;29;20272;-78
2024/01/17 16:42:43;;;;;;;77.97;42.63;;;-2.70;99.90;;;;;;10053358;29;20694;-78
2024/01/17 16:47:46;;;;;;;84.50;44.10;;;-2.60;99.90;;;;;;10052467;29;20291;-78
2024/01/17 16:52:49;;;;;;;112.87;59.50;;;-2.50;99.90;;;;;;10051624;29;20273;-78
2024/01/17 16:57:51;;;;;;;108.93;53.40;;;-2.40;99.90;;;;;;10051336;29;20313;-78
2024/01/17 17:02:54;;;;;;;124.60;64.30;;;-2.40;99.90;;;;;;10051912;29;20286;-78
2024/01/17 17:07:57;;;;;;;153.63;71.40;;;-2.20;99.90;;;;;;10023544;29;20272;-78
2024/01/17 17:12:59;;;;;;;88.43;46.77;;;-2.10;99.90;;;;;;10040898;29;20296;-78
2024/01/17 17:18:02;;;;;;;65.00;38.63;;;-2.00;99.90;;;;;;10052719;29;20318;-78
2024/01/17 17:23:05;;;;;;;62.40;35.23;;;-1.90;99.90;;;;;;10049398;29;20828;-77
2024/01/17 17:28:08;;;;;;;84.80;44.70;;;-1.80;99.90;;;;;;10050983;29;20317;-78
2024/01/17 17:33:11;;;;;;;69.97;42.00;;;-1.70;99.90;;;;;;10051592;29;20229;-78
2024/01/17 17:38:14;;;;;;;55.70;34.67;;;-1.60;99.90;;;;;;10050973;29;20271;-77
2024/01/17 17:43:16;;;;;;;169.80;75.23;;;-1.50;99.90;;;;;;10050697;29;20256;-78
2024/01/17 17:48:20;;;;;;;186.40;80.63;;;-1.50;99.90;;;;;;10048159;29;21029;-78
2024/01/17 17:53:23;;;;;;;101.73;53.50;;;-1.40;99.90;;;;;;10047413;29;21072;-78
2024/01/17 17:58:25;;;;;;;59.90;36.40;;;-1.30;99.90;;;;;;10051583;29;20311;-78
2024/01/17 18:03:28;;;;;;;66.43;31.07;;;-1.20;99.90;;;;;;10052160;29;20932;-78
2024/01/17 18:08:31;;;;;;;69.00;38.17;;;-1.20;99.90;;;;;;10050100;29;20320;-78
2024/01/17 18:13:33;;;;;;;67.93;39.50;;;-1.10;99.90;;;;;;10046779;29;20317;-78
2024/01/17 18:18:36;;;;;;;65.07;35.77;;;-1.10;99.90;;;;;;10050878;29;20699;-78
2024/01/17 18:23:39;;;;;;;65.93;37.13;;;-1.10;99.90;;;;;;10049394;29;20233;-77
2024/01/17 18:28:42;;;;;;;66.00;36.60;;;-1.00;99.90;;;;;;10047820;29;20304;-78
2024/01/17 18:33:45;;;;;;;66.30;40.47;;;-1.10;99.90;;;;;;10051008;29;20707;-78
2024/01/17 18:38:49;;;;;;;63.83;39.87;;;-1.10;99.90;;;;;;10051155;29;20252;-78
2024/01/17 18:43:52;;;;;;;57.07;31.83;;;-1.10;99.90;;;;;;10047827;29;20237;-80
2024/01/17 18:48:55;;;;;;;50.23;28.47;;;-1.00;99.90;;;;;;10048678;29;20309;-79
2024/01/17 18:53:57;;;;;;;52.37;29.83;;;-0.80;99.90;;;;;;10049871;29;20241;-80
2024/01/17 18:59:03;;;;;;;54.20;29.33;;;-0.10;99.90;;;;;;10048842;29;20274;-80
2024/01/17 19:04:09;;;;;;;50.83;27.70;;;0.40;99.90;;;;;;10064309;29;20289;-79
2024/01/17 19:09:15;;;;;;;40.53;23.60;;;0.70;99.90;;;;;;10048603;29;20269;-79
2024/01/17 19:14:20;;;;;;;60.33;33.00;;;0.90;99.90;;;;;;10042821;29;20241;-80
2024/01/17 19:19:23;;;;;;;66.40;37.77;;;1.50;99.90;;;;;;10052089;29;20249;-80
2024/01/17 19:24:27;;;;;;;53.47;31.47;;;1.60;99.90;;;;;;10057482;29;20674;-80
2024/01/17 19:29:30;;;;;;;55.13;31.60;;;1.40;99.90;;;;;;10085324;29;20261;-80
2024/01/17 19:34:33;;;;;;;68.23;37.93;;;1.50;99.90;;;;;;10056704;29;20696;-80
2024/01/17 19:39:36;;;;;;;63.97;38.17;;;1.70;99.90;;;;;;10019898;29;20278;-80
2024/01/17 19:44:39;;;;;;;59.37;35.23;;;1.60;99.90;;;;;;10020282;29;20685;-80
2024/01/17 19:49:41;;;;;;;58.83;36.27;;;1.60;99.90;;;;;;10060460;29;20774;-80
2024/01/17 19:54:49;;;;;;;60.90;35.07;;;1.50;99.90;;;;;;10055900;29;20300;-80
2024/01/17 19:59:51;;;;;;;73.63;41.43;;;1.60;99.90;;;;;;10056434;29;20759;-79
2024/01/17 20:04:54;;;;;;;62.77;36.73;;;2.30;99.90;;;;;;10055767;29;20266;-79
2024/01/17 20:09:58;;;;;;;75.03;42.30;;;2.20;99.90;;;;;;10055180;29;20301;-79
2024/01/17 20:15:01;;;;;;;67.43;38.53;;;2.00;99.90;;;;;;10054531;29;20619;-79
2024/01/17 20:20:05;;;;;;;57.63;35.10;;;1.70;99.90;;;;;;10053177;29;20241;-78
2024/01/17 20:25:13;;;;;;;80.33;47.87;;;1.70;99.90;;;;;;10055617;29;20695;-79
2024/01/17 20:30:19;;;;;;;52.03;30.53;;;1.60;99.90;;;;;;10051698;29;20269;-79
2024/01/17 20:35:22;;;;;;;71.90;41.93;;;1.90;99.90;;;;;;10052599;29;20245;-79
2024/01/17 20:40:25;;;;;;;95.20;50.10;;;2.10;99.90;;;;;;10078753;29;20675;-78
2024/01/17 20:45:28;;;;;;;94.63;47.27;;;1.90;99.90;;;;;;10054743;29;20241;-78
2024/01/17 20:50:31;;;;;;;77.87;41.03;;;1.80;99.90;;;;;;10051567;29;20265;-78
2024/01/17 20:55:33;;;;;;;96.60;44.63;;;1.90;99.90;;;;;;10054139;29;20241;-79
2024/01/17 21:00:36;;;;;;;124.83;59.53;;;2.00;99.90;;;;;;10053976;29;20309;-79
2024/01/17 21:05:38;;;;;;;85.70;45.30;;;1.80;99.90;;;;;;10055714;29;20241;-79
2024/01/17 21:10:41;;;;;;;72.93;41.67;;;1.60;99.90;;;;;;10083919;29;20257;-79
2024/01/17 21:15:43;;;;;;;72.17;41.93;;;1.80;99.90;;;;;;10054754;29;20229;-79
2024/01/17 21:20:46;;;;;;;76.80;45.83;;;1.80;99.90;;;;;;10054645;29;20241;-79
2024/01/17 21:25:48;;;;;;;57.47;35.57;;;1.50;99.90;;;;;;10053527;29;20253;-79
2024/01/17 21:30:51;;;;;;;66.03;34.57;;;1.60;99.90;;;;;;10051276;29;20261;-79
2024/01/17 21:35:53;;;;;;;76.37;39.13;;;1.90;99.90;;;;;;10051184;29;20265;-79
2024/01/17 21:40:56;;;;;;;65.93;35.23;;;2.00;99.90;;;;;;10051862;29;20724;-79
2024/01/17 21:46:00;;;;;;;87.33;44.77;;;2.20;99.90;;;;;;10052178;29;20241;-79
2024/01/17 21:51:03;;;;;;;67.93;38.63;;;2.00;99.90;;;;;;10053861;29;20273;-79
2024/01/17 21:56:06;;;;;;;121.33;55.30;;;1.70;99.90;;;;;;10053034;29;20297;-79
2024/01/17 22:01:08;;;;;;;61.43;34.40;;;1.70;99.90;;;;;;10052813;29;20237;-79
2024/01/17 22:06:11;;;;;;;68.10;40.50;;;2.20;99.90;;;;;;10053438;29;20321;-80
2024/01/17 22:11:14;;;;;;;59.87;36.73;;;2.50;99.90;;;;;;10047415;29;20261;-80
2024/01/17 22:16:16;;;;;;;54.33;33.17;;;2.40;99.90;;;;;;10042026;29;20286;-79
2024/01/17 22:21:19;;;;;;;59.27;35.93;;;2.10;99.90;;;;;;10013184;29;20250;-79
2024/01/17 22:26:21;;;;;;;55.57;33.60;;;1.90;99.90;;;;;;10027129;29;20270;-80
2024/01/17 22:31:25;;;;;;;62.13;36.97;;;2.10;99.90;;;;;;10050450;29;20249;-80
2024/01/17 22:36:28;;;;;;;53.97;30.83;;;2.10;99.90;;;;;;10051364;29;20233;-80
2024/01/17 22:41:30;;;;;;;49.87;34.00;;;2.10;99.90;;;;;;10049709;29;20310;-79
2024/01/17 22:46:33;;;;;;;62.30;35.63;;;2.00;99.90;;;;;;10051196;29;20249;-79
2024/01/17 22:51:35;;;;;;;70.93;39.97;;;1.80;99.90;;;;;;10051187;29;20265;-80
2024/01/17 22:56:38;;;;;;;65.27;39.30;;;1.60;99.90;;;;;;10050945;29;20316;-79
2024/01/17 23:01:40;;;;;;;67.37;39.33;;;1.50;99.90;;;;;;10028017;29;20245;-80
2024/01/17 23:06:43;;;;;;;72.17;43.43;;;1.30;99.90;;;;;;10038059;29;20233;-80
2024/01/17 23:11:46;;;;;;;75.43;42.27;;;1.10;99.90;;;;;;10045852;29;20799;-80
2024/01/17 23:16:49;;;;;;;73.53;44.00;;;1.10;99.90;;;;;;10061190;29;20236;-80
2024/01/17 23:21:51;;;;;;;69.73;41.53;;;1.00;99.90;;;;;;10072088;29;20232;-80
2024/01/17 23:26:54;;;;;;;68.67;40.23;;;1.00;99.90;;;;;;10067626;29;20281;-80
2024/01/17 23:31:57;;;;;;;69.57;42.47;;;1.00;99.90;;;;;;10071079;29;20296;-80
2024/01/17 23:36:59;;;;;;;67.07;38.03;;;0.90;99.90;;;;;;10067825;29;20642;-80
2024/01/17 23:42:01;;;;;;;56.83;33.40;;;0.90;99.90;;;;;;10068201;29;20234;-80
2024/01/17 23:47:04;;;;;;;54.13;31.97;;;1.00;99.90;;;;;;10065489;29;20237;-80
2024/01/17 23:52:07;;;;;;;58.40;34.47;;;1.10;99.90;;;;;;10066924;29;20263;-79
2024/01/17 23:57:09;;;;;;;53.67;31.23;;;1.60;99.90;;;;;;10070148;29;20229;-80
